Flight Track Log - Related Links

Times and Time Zones

All times are in EDT time to prevent confusion due to time zone crossing. See the N143DE flight status page for this flight to view local times or setup timezone preferences in your user account.

Time Position Orientation Groundspeed Altitude Reporting Facility
EDT Latitude Longitude Course Direction KTS MPH feet Rate Location/Type
Tue 06:20:04 PM 30.4897 -84.3800 147° Southeast 134 154 21,000  Level Jacksonville Center
Tue 06:21:04 PM 30.5272 -84.3878 350° North 129 148 9,400 -4,650 Descending Jacksonville Center
Tue 06:22:04 PM 30.5728 -84.4006 346° North 134 154 11,700 2,150 Climbing Jacksonville Center
Tue 06:23:04 PM 30.6103 -84.4133 344° North 140 161 13,700 1,900 Climbing Jacksonville Center
Tue 06:24:04 PM 30.6519 -84.4283 343° North 146 168 15,500 1,700 Climbing Jacksonville Center
Tue 06:25:00 PM 30.6677 -84.3687 147° Southeast  Level Estimated
Tue 06:25:04 PM 30.6936 -84.4411 345° North 146 168 17,100  Level Jacksonville Center
Tue 06:26:04 PM 30.7331 -84.4539 344° North 146 168 18,700 1,400 Climbing Jacksonville Center
Tue 06:27:04 PM 30.7767 -84.4667 346° North 146 168 19,900 650 Climbing Jacksonville Center
Tue 06:28:04 PM 30.8328 -84.4844 345° North 169 194 20,000 50 Climbing Jacksonville Center
Tue 06:29:04 PM 30.8972 -84.5075 343° North 206 237 20,000  Level Jacksonville Center
Tue 06:30:04 PM 30.9639 -84.5278 345° North 233 268 20,000  Level Jacksonville Center
Tue 06:31:04 PM 31.0261 -84.5458 346° North 243 280 20,000  Level Jacksonville Center
Tue 06:32:04 PM 31.0969 -84.5714 343° North 248 285 20,000  Level Jacksonville Center
Tue 06:33:04 PM 31.1675 -84.5897 347° North 253 291 20,000  Level Jacksonville Center
Tue 06:34:04 PM 31.2361 -84.6128 344° North 259 298 20,000  Level Jacksonville Center
Tue 06:35:04 PM 31.3069 -84.6361 344° North 259 298 20,000  Level Jacksonville Center
Tue 06:36:04 PM 31.3756 -84.6567 346° North 259 298 20,000  Level Jacksonville Center
Tue 06:37:43 PM 31.5006 -84.6989 344° North 254 292 20,000  Level Atlanta Center
Tue 06:38:43 PM 31.5714 -84.7214 345° North 254 292 20,000  Level Atlanta Center
Tue 06:39:43 PM 31.6403 -84.7439 344° North 254 292 20,000  Level Atlanta Center
Tue 06:40:43 PM 31.7111 -84.7689 343° North 259 298 20,000  Level Atlanta Center
Tue 06:41:43 PM 31.7819 -84.7889 347° North 259 298 20,000  Level Atlanta Center
Tue 06:42:43 PM 31.8528 -84.8139 343° North 259 298 20,000  Level Atlanta Center
Tue 06:43:43 PM 31.9236 -84.8342 346° North 259 298 20,000 -300 Level Atlanta Center
Tue 06:44:43 PM 31.9881 -84.8567 344° North 259 298 19,400 -750 Descending Atlanta Center
Tue 06:45:43 PM 32.0653 -84.8819 344° North 270 311 18,500 -850 Descending Atlanta Center
Tue 06:46:43 PM 32.1422 -84.9097 343° North 282 325 17,700 -900 Descending Atlanta Center
Tue 06:47:43 PM 32.2214 -84.9325 346° North 282 325 16,700 -1,000 Descending Atlanta Center
Tue 06:48:43 PM 32.3067 -84.9603 345° North 282 325 15,700 -950 Descending Atlanta Center
Tue 06:49:43 PM 32.3839 -84.9833 346° North 282 325 14,800 -850 Descending Atlanta Center
Tue 06:50:43 PM 32.4608 -85.0111 343° North 287 330 14,000 -450 Descending Atlanta Center
Tue 06:51:43 PM 32.5336 -85.0317 347° North 280 322 13,900 -50 Descending Atlanta Center
Tue 06:52:43 PM 32.6044 -85.0572 343° North 269 310 13,900 -200 Level Atlanta Center
Tue 06:53:43 PM 32.6753 -85.0803 345° North 264 304 13,500 -750 Descending Atlanta Center
Tue 06:54:43 PM 32.7481 -85.1058 344° North 264 304 12,400 -1,000 Descending Atlanta Center
Tue 06:55:43 PM 32.8292 -85.1314 345° North 283 326 11,500 -750 Descending Atlanta Center
Tue 06:56:43 PM 32.9000 -85.1547 345° North 276 318 10,900 -900 Descending Atlanta Center
Tue 06:57:43 PM 32.9750 -85.1803 344° North 276 318 9,700 -1,100 Descending Atlanta Center
Tue 06:58:43 PM 33.0394 -85.2036 343° North 276 318 8,700 -950 Descending Atlanta Center
Tue 06:59:43 PM 33.1125 -85.1894 North 256 295 7,800 -800 Descending Atlanta Center
Tue 07:00:43 PM 33.1817 -85.1681 15° North 256 295 7,100 -338 Descending Atlanta Center
Tue 07:02:23 PM 33.3000 -85.1333 14° North 242 278 6,900 -38 Descending Atlanta TRACON
Tue 07:03:23 PM 33.3667 -85.1167 12° North 240 276 7,000 53 Climbing Atlanta TRACON
Tue 07:04:17 PM 33.4167 -85.1000 16° North 239 275 7,000  Level Atlanta TRACON
Tue 07:05:23 PM 33.4833 -85.0667 23° Northeast 236 272 7,000 -429 Level Atlanta TRACON
Tue 07:06:23 PM 33.5500 -85.0500 12° North 250 288 6,100 -800 Descending Atlanta TRACON
Tue 07:07:23 PM 33.6333 -85.0667 351° North 256 295 5,400 -500 Descending Atlanta TRACON
Tue 07:08:23 PM 33.7000 -85.0667 360° North 249 287 5,100 -143 Descending Atlanta TRACON
Tue 07:09:29 PM 33.7667 -85.0333 23° Northeast 233 268 5,100  Level Atlanta TRACON
Tue 07:10:29 PM 33.8167 -84.9833 40° Northeast 232 267 5,100  Level Atlanta TRACON
Tue 07:11:29 PM 33.8667 -84.9333 40° Northeast 228 262 5,100 -368 Level Atlanta TRACON
Tue 07:12:23 PM 33.9000 -84.9000 40° Northeast 219 252 4,400 -632 Descending Atlanta TRACON
Tue 07:13:23 PM 33.9500 -84.8500 40° Northeast 212 244 3,900 -550 Descending Atlanta TRACON
Tue 07:14:23 PM 33.9833 -84.8000 51° Northeast 205 236 3,300 -470 Descending Atlanta TRACON
Tue 07:15:18 PM 34.0000 -84.7500 68° East 185 213 3,000 -250 Descending Atlanta TRACON
Tue 07:16:23 PM 34.0167 -84.7000 68° East 141 162 2,800 -185 Descending Atlanta TRACON
Tue 07:19:00 PM 34.0132 -84.5971 68° East  Level Estimated
Tue 07:26:00 PM 34.0132 -84.5971 68° East  Level Estimated
Tue 07:27:00 PM 34.0132 -84.5971 68° East  Level Estimated
Tue 07:28:00 PM 34.0132 -84.5971 68° East  Level Estimated

Login

Don't have an account? Register now (free) for customized features, flight alerts, and more!